sensor_id;sensor_type;location;lat;lon;timestamp;P1;durP1;ratioP1;P2;durP2;ratioP2
33367;SDS011;19724;51.114;13.906;2022-11-27T00:00:38;52.47;;;26.38;;
33367;SDS011;19724;51.114;13.906;2022-11-27T00:03:04;90.13;;;36.20;;
33367;SDS011;19724;51.114;13.906;2022-11-27T00:05:30;64.45;;;34.42;;
33367;SDS011;19724;51.114;13.906;2022-11-27T00:07:55;67.68;;;30.30;;
33367;SDS011;19724;51.114;13.906;2022-11-27T00:10:21;61.78;;;32.42;;
33367;SDS011;19724;51.114;13.906;2022-11-27T00:12:46;73.85;;;30.95;;
33367;SDS011;19724;51.114;13.906;2022-11-27T00:15:12;69.85;;;32.53;;
33367;SDS011;19724;51.114;13.906;2022-11-27T00:17:38;62.88;;;30.52;;
33367;SDS011;19724;51.114;13.906;2022-11-27T00:20:03;86.30;;;38.35;;
33367;SDS011;19724;51.114;13.906;2022-11-27T00:22:29;69.93;;;32.85;;
33367;SDS011;19724;51.114;13.906;2022-11-27T00:24:55;59.20;;;30.90;;
33367;SDS011;19724;51.114;13.906;2022-11-27T00:27:20;63.78;;;31.23;;
33367;SDS011;19724;51.114;13.906;2022-11-27T00:29:46;59.50;;;33.40;;
33367;SDS011;19724;51.114;13.906;2022-11-27T00:32:11;72.18;;;32.97;;
33367;SDS011;19724;51.114;13.906;2022-11-27T00:34:37;66.53;;;29.95;;
33367;SDS011;19724;51.114;13.906;2022-11-27T00:37:02;63.80;;;30.33;;
33367;SDS011;19724;51.114;13.906;2022-11-27T00:39:28;55.85;;;30.45;;
33367;SDS011;19724;51.114;13.906;2022-11-27T00:41:54;65.50;;;33.40;;
33367;SDS011;19724;51.114;13.906;2022-11-27T00:44:19;64.82;;;34.22;;
33367;SDS011;19724;51.114;13.906;2022-11-27T00:46:45;85.03;;;33.10;;
33367;SDS011;19724;51.114;13.906;2022-11-27T00:49:11;50.08;;;27.83;;
33367;SDS011;19724;51.114;13.906;2022-11-27T00:51:38;66.57;;;34.28;;
33367;SDS011;19724;51.114;13.906;2022-11-27T00:54:04;68.75;;;32.58;;
33367;SDS011;19724;51.114;13.906;2022-11-27T00:56:31;74.85;;;29.88;;
33367;SDS011;19724;51.114;13.906;2022-11-27T00:58:58;72.53;;;34.13;;
33367;SDS011;19724;51.114;13.906;2022-11-27T01:01:28;60.30;;;34.60;;
33367;SDS011;19724;51.114;13.906;2022-11-27T01:03:59;78.00;;;30.00;;
33367;SDS011;19724;51.114;13.906;2022-11-27T01:06:26;71.70;;;30.10;;
33367;SDS011;19724;51.114;13.906;2022-11-27T01:08:52;65.78;;;30.25;;
33367;SDS011;19724;51.114;13.906;2022-11-27T01:11:22;61.25;;;30.83;;
33367;SDS011;19724;51.114;13.906;2022-11-27T01:13:59;86.68;;;30.90;;
33367;SDS011;19724;51.114;13.906;2022-11-27T01:16:26;72.22;;;32.92;;
33367;SDS011;19724;51.114;13.906;2022-11-27T01:18:54;72.65;;;28.85;;
33367;SDS011;19724;51.114;13.906;2022-11-27T01:21:21;82.82;;;31.20;;
33367;SDS011;19724;51.114;13.906;2022-11-27T01:23:48;49.72;;;25.85;;
33367;SDS011;19724;51.114;13.906;2022-11-27T01:26:14;50.03;;;26.83;;
33367;SDS011;19724;51.114;13.906;2022-11-27T01:28:41;61.13;;;30.30;;
33367;SDS011;19724;51.114;13.906;2022-11-27T01:31:08;48.65;;;25.65;;
33367;SDS011;19724;51.114;13.906;2022-11-27T01:33:36;61.97;;;28.40;;
33367;SDS011;19724;51.114;13.906;2022-11-27T01:36:03;83.28;;;29.48;;
33367;SDS011;19724;51.114;13.906;2022-11-27T01:38:31;68.90;;;29.85;;
33367;SDS011;19724;51.114;13.906;2022-11-27T01:41:01;71.95;;;30.02;;
33367;SDS011;19724;51.114;13.906;2022-11-27T01:43:51;61.40;;;30.65;;
33367;SDS011;19724;51.114;13.906;2022-11-27T01:48:59;61.97;;;32.17;;
33367;SDS011;19724;51.114;13.906;2022-11-27T01:51:35;89.18;;;32.75;;
33367;SDS011;19724;51.114;13.906;2022-11-27T01:54:02;67.25;;;28.48;;
33367;SDS011;19724;51.114;13.906;2022-11-27T01:56:28;53.95;;;26.65;;
33367;SDS011;19724;51.114;13.906;2022-11-27T01:58:55;58.78;;;28.90;;
33367;SDS011;19724;51.114;13.906;2022-11-27T02:01:22;60.60;;;28.42;;
33367;SDS011;19724;51.114;13.906;2022-11-27T02:03:50;56.53;;;28.30;;
33367;SDS011;19724;51.114;13.906;2022-11-27T02:06:21;64.78;;;30.00;;
33367;SDS011;19724;51.114;13.906;2022-11-27T02:08:47;68.20;;;28.20;;
33367;SDS011;19724;51.114;13.906;2022-11-27T02:11:14;80.05;;;32.60;;
33367;SDS011;19724;51.114;13.906;2022-11-27T02:13:59;65.95;;;30.50;;
33367;SDS011;19724;51.114;13.906;2022-11-27T02:16:36;76.13;;;30.58;;
33367;SDS011;19724;51.114;13.906;2022-11-27T02:21:55;68.35;;;30.30;;
33367;SDS011;19724;51.114;13.906;2022-11-27T02:24:32;58.97;;;29.70;;
33367;SDS011;19724;51.114;13.906;2022-11-27T02:29:58;60.60;;;30.10;;
33367;SDS011;19724;51.114;13.906;2022-11-27T02:32:31;72.63;;;31.35;;
33367;SDS011;19724;51.114;13.906;2022-11-27T02:35:03;60.67;;;30.70;;
33367;SDS011;19724;51.114;13.906;2022-11-27T02:37:37;71.80;;;28.50;;
33367;SDS011;19724;51.114;13.906;2022-11-27T02:40:11;59.40;;;30.98;;
33367;SDS011;19724;51.114;13.906;2022-11-27T02:42:52;51.80;;;26.45;;
33367;SDS011;19724;51.114;13.906;2022-11-27T02:45:22;61.65;;;26.42;;
33367;SDS011;19724;51.114;13.906;2022-11-27T02:47:53;62.70;;;27.73;;
33367;SDS011;19724;51.114;13.906;2022-11-27T02:50:21;65.63;;;35.28;;
33367;SDS011;19724;51.114;13.906;2022-11-27T02:52:49;68.28;;;27.23;;
33367;SDS011;19724;51.114;13.906;2022-11-27T02:55:19;62.50;;;31.40;;
33367;SDS011;19724;51.114;13.906;2022-11-27T02:57:47;47.38;;;26.75;;
33367;SDS011;19724;51.114;13.906;2022-11-27T03:00:16;49.97;;;28.00;;
33367;SDS011;19724;51.114;13.906;2022-11-27T03:02:44;61.88;;;27.20;;
33367;SDS011;19724;51.114;13.906;2022-11-27T03:05:15;60.22;;;26.23;;
33367;SDS011;19724;51.114;13.906;2022-11-27T03:07:46;65.43;;;27.17;;
33367;SDS011;19724;51.114;13.906;2022-11-27T03:10:25;75.80;;;28.05;;
33367;SDS011;19724;51.114;13.906;2022-11-27T03:12:58;75.80;;;34.10;;
33367;SDS011;19724;51.114;13.906;2022-11-27T03:15:26;61.38;;;32.38;;
33367;SDS011;19724;51.114;13.906;2022-11-27T03:18:10;71.30;;;30.85;;
33367;SDS011;19724;51.114;13.906;2022-11-27T03:20:42;69.10;;;26.75;;
33367;SDS011;19724;51.114;13.906;2022-11-27T03:23:13;70.82;;;31.73;;
33367;SDS011;19724;51.114;13.906;2022-11-27T03:25:38;63.00;;;29.25;;
33367;SDS011;19724;51.114;13.906;2022-11-27T03:28:04;62.55;;;27.30;;
33367;SDS011;19724;51.114;13.906;2022-11-27T03:30:34;94.55;;;33.25;;
33367;SDS011;19724;51.114;13.906;2022-11-27T03:32:59;67.88;;;27.35;;
33367;SDS011;19724;51.114;13.906;2022-11-27T03:35:26;69.93;;;30.27;;
33367;SDS011;19724;51.114;13.906;2022-11-27T03:37:52;66.55;;;31.05;;
33367;SDS011;19724;51.114;13.906;2022-11-27T03:40:19;58.15;;;28.00;;
33367;SDS011;19724;51.114;13.906;2022-11-27T03:43:06;60.83;;;28.52;;
33367;SDS011;19724;51.114;13.906;2022-11-27T03:45:41;76.25;;;35.60;;
33367;SDS011;19724;51.114;13.906;2022-11-27T03:53:41;63.13;;;30.45;;
33367;SDS011;19724;51.114;13.906;2022-11-27T03:59:08;90.65;;;30.55;;
33367;SDS011;19724;51.114;13.906;2022-11-27T04:01:44;59.40;;;27.77;;
33367;SDS011;19724;51.114;13.906;2022-11-27T04:04:10;86.90;;;36.05;;
33367;SDS011;19724;51.114;13.906;2022-11-27T04:06:35;49.05;;;23.10;;
33367;SDS011;19724;51.114;13.906;2022-11-27T04:09:01;54.58;;;26.08;;
33367;SDS011;19724;51.114;13.906;2022-11-27T04:11:27;47.20;;;26.15;;
33367;SDS011;19724;51.114;13.906;2022-11-27T04:13:52;60.85;;;26.38;;
33367;SDS011;19724;51.114;13.906;2022-11-27T04:16:18;63.20;;;33.50;;
33367;SDS011;19724;51.114;13.906;2022-11-27T04:18:43;48.80;;;25.05;;
33367;SDS011;19724;51.114;13.906;2022-11-27T04:21:09;53.55;;;26.95;;
33367;SDS011;19724;51.114;13.906;2022-11-27T04:23:36;83.78;;;27.13;;
33367;SDS011;19724;51.114;13.906;2022-11-27T04:26:02;68.28;;;28.77;;
33367;SDS011;19724;51.114;13.906;2022-11-27T04:28:28;69.90;;;25.80;;
33367;SDS011;19724;51.114;13.906;2022-11-27T04:30:54;68.53;;;25.85;;
33367;SDS011;19724;51.114;13.906;2022-11-27T04:33:20;72.10;;;23.23;;
33367;SDS011;19724;51.114;13.906;2022-11-27T04:35:46;43.10;;;22.25;;
33367;SDS011;19724;51.114;13.906;2022-11-27T04:38:12;52.28;;;29.40;;
33367;SDS011;19724;51.114;13.906;2022-11-27T04:40:37;51.53;;;23.58;;
33367;SDS011;19724;51.114;13.906;2022-11-27T04:43:03;73.13;;;26.85;;
33367;SDS011;19724;51.114;13.906;2022-11-27T04:45:28;42.28;;;21.75;;
33367;SDS011;19724;51.114;13.906;2022-11-27T04:47:54;59.80;;;31.55;;
33367;SDS011;19724;51.114;13.906;2022-11-27T04:50:20;49.45;;;25.20;;
33367;SDS011;19724;51.114;13.906;2022-11-27T04:52:45;68.68;;;27.20;;
33367;SDS011;19724;51.114;13.906;2022-11-27T04:55:10;48.28;;;23.15;;
33367;SDS011;19724;51.114;13.906;2022-11-27T04:57:36;53.80;;;28.25;;
33367;SDS011;19724;51.114;13.906;2022-11-27T05:00:02;55.28;;;25.35;;
33367;SDS011;19724;51.114;13.906;2022-11-27T05:02:28;67.40;;;24.73;;
33367;SDS011;19724;51.114;13.906;2022-11-27T05:04:54;49.83;;;27.13;;
33367;SDS011;19724;51.114;13.906;2022-11-27T05:07:20;65.93;;;24.27;;
33367;SDS011;19724;51.114;13.906;2022-11-27T05:09:45;44.22;;;22.27;;
33367;SDS011;19724;51.114;13.906;2022-11-27T05:12:11;50.50;;;24.20;;
33367;SDS011;19724;51.114;13.906;2022-11-27T05:14:36;60.00;;;27.92;;
33367;SDS011;19724;51.114;13.906;2022-11-27T05:17:02;49.22;;;26.52;;
33367;SDS011;19724;51.114;13.906;2022-11-27T05:19:28;54.10;;;25.88;;
33367;SDS011;19724;51.114;13.906;2022-11-27T05:21:55;49.75;;;24.85;;
33367;SDS011;19724;51.114;13.906;2022-11-27T05:24:21;49.35;;;23.73;;
33367;SDS011;19724;51.114;13.906;2022-11-27T05:26:49;55.05;;;25.15;;
33367;SDS011;19724;51.114;13.906;2022-11-27T05:29:15;55.42;;;24.50;;
33367;SDS011;19724;51.114;13.906;2022-11-27T05:31:41;46.80;;;24.45;;
33367;SDS011;19724;51.114;13.906;2022-11-27T05:34:07;56.15;;;24.27;;
33367;SDS011;19724;51.114;13.906;2022-11-27T05:36:33;44.70;;;26.58;;
33367;SDS011;19724;51.114;13.906;2022-11-27T05:39:00;51.88;;;23.52;;
33367;SDS011;19724;51.114;13.906;2022-11-27T05:41:28;40.08;;;22.13;;
33367;SDS011;19724;51.114;13.906;2022-11-27T05:43:54;53.28;;;25.17;;
33367;SDS011;19724;51.114;13.906;2022-11-27T05:46:20;57.50;;;22.85;;
33367;SDS011;19724;51.114;13.906;2022-11-27T05:48:46;47.53;;;23.73;;
33367;SDS011;19724;51.114;13.906;2022-11-27T05:51:12;62.30;;;30.90;;
33367;SDS011;19724;51.114;13.906;2022-11-27T05:53:38;41.08;;;23.60;;
33367;SDS011;19724;51.114;13.906;2022-11-27T05:56:05;50.35;;;24.65;;
33367;SDS011;19724;51.114;13.906;2022-11-27T05:58:32;60.95;;;23.90;;
33367;SDS011;19724;51.114;13.906;2022-11-27T06:00:58;39.83;;;21.80;;
33367;SDS011;19724;51.114;13.906;2022-11-27T06:03:24;42.35;;;21.38;;
33367;SDS011;19724;51.114;13.906;2022-11-27T06:05:50;38.72;;;20.75;;
33367;SDS011;19724;51.114;13.906;2022-11-27T06:08:16;39.75;;;19.35;;
33367;SDS011;19724;51.114;13.906;2022-11-27T06:10:41;37.45;;;18.98;;
33367;SDS011;19724;51.114;13.906;2022-11-27T06:13:07;51.80;;;22.75;;
33367;SDS011;19724;51.114;13.906;2022-11-27T06:15:32;46.25;;;20.33;;
33367;SDS011;19724;51.114;13.906;2022-11-27T06:17:59;40.92;;;20.38;;
33367;SDS011;19724;51.114;13.906;2022-11-27T06:20:25;56.95;;;23.33;;
33367;SDS011;19724;51.114;13.906;2022-11-27T06:22:50;39.90;;;19.67;;
33367;SDS011;19724;51.114;13.906;2022-11-27T06:25:16;43.30;;;22.58;;
33367;SDS011;19724;51.114;13.906;2022-11-27T06:27:41;44.65;;;20.02;;
33367;SDS011;19724;51.114;13.906;2022-11-27T06:30:07;39.17;;;19.90;;
33367;SDS011;19724;51.114;13.906;2022-11-27T06:32:33;43.90;;;22.13;;
33367;SDS011;19724;51.114;13.906;2022-11-27T06:34:59;41.10;;;21.65;;
33367;SDS011;19724;51.114;13.906;2022-11-27T06:37:24;31.73;;;17.80;;
33367;SDS011;19724;51.114;13.906;2022-11-27T06:39:50;37.63;;;18.40;;
33367;SDS011;19724;51.114;13.906;2022-11-27T06:42:15;36.88;;;18.50;;
33367;SDS011;19724;51.114;13.906;2022-11-27T06:44:41;35.63;;;18.00;;
33367;SDS011;19724;51.114;13.906;2022-11-27T06:47:07;35.63;;;17.63;;
33367;SDS011;19724;51.114;13.906;2022-11-27T06:49:33;44.20;;;18.98;;
33367;SDS011;19724;51.114;13.906;2022-11-27T06:51:59;34.38;;;17.92;;
33367;SDS011;19724;51.114;13.906;2022-11-27T06:54:25;39.00;;;19.52;;
33367;SDS011;19724;51.114;13.906;2022-11-27T06:56:50;37.00;;;18.05;;
33367;SDS011;19724;51.114;13.906;2022-11-27T06:59:16;35.10;;;19.08;;
33367;SDS011;19724;51.114;13.906;2022-11-27T07:01:42;39.47;;;21.17;;
33367;SDS011;19724;51.114;13.906;2022-11-27T07:04:11;39.88;;;20.23;;
33367;SDS011;19724;51.114;13.906;2022-11-27T07:06:38;36.75;;;19.17;;
33367;SDS011;19724;51.114;13.906;2022-11-27T07:09:06;46.45;;;21.00;;
33367;SDS011;19724;51.114;13.906;2022-11-27T07:11:33;42.92;;;20.60;;
33367;SDS011;19724;51.114;13.906;2022-11-27T07:14:02;42.03;;;20.80;;
33367;SDS011;19724;51.114;13.906;2022-11-27T07:16:29;37.00;;;19.83;;
33367;SDS011;19724;51.114;13.906;2022-11-27T07:18:58;34.90;;;19.42;;
33367;SDS011;19724;51.114;13.906;2022-11-27T07:21:25;41.55;;;18.75;;
33367;SDS011;19724;51.114;13.906;2022-11-27T07:23:51;47.83;;;21.05;;
33367;SDS011;19724;51.114;13.906;2022-11-27T07:26:20;45.08;;;20.52;;
33367;SDS011;19724;51.114;13.906;2022-11-27T07:28:48;38.53;;;21.85;;
33367;SDS011;19724;51.114;13.906;2022-11-27T07:31:15;51.17;;;23.45;;
33367;SDS011;19724;51.114;13.906;2022-11-27T07:33:43;43.92;;;20.73;;
33367;SDS011;19724;51.114;13.906;2022-11-27T07:38:36;50.70;;;25.77;;
33367;SDS011;19724;51.114;13.906;2022-11-27T07:41:02;55.40;;;25.45;;
33367;SDS011;19724;51.114;13.906;2022-11-27T07:43:29;61.80;;;28.20;;
33367;SDS011;19724;51.114;13.906;2022-11-27T07:45:56;50.17;;;25.05;;
33367;SDS011;19724;51.114;13.906;2022-11-27T07:48:22;42.67;;;21.33;;
33367;SDS011;19724;51.114;13.906;2022-11-27T07:50:47;53.63;;;24.27;;
33367;SDS011;19724;51.114;13.906;2022-11-27T07:53:13;66.65;;;26.38;;
33367;SDS011;19724;51.114;13.906;2022-11-27T07:55:39;59.95;;;26.85;;
33367;SDS011;19724;51.114;13.906;2022-11-27T07:58:05;62.88;;;27.65;;
33367;SDS011;19724;51.114;13.906;2022-11-27T08:00:32;66.45;;;30.80;;
33367;SDS011;19724;51.114;13.906;2022-11-27T08:02:58;64.47;;;28.65;;
33367;SDS011;19724;51.114;13.906;2022-11-27T08:05:24;54.17;;;27.88;;
33367;SDS011;19724;51.114;13.906;2022-11-27T08:07:49;63.22;;;31.52;;
33367;SDS011;19724;51.114;13.906;2022-11-27T08:10:15;66.93;;;29.40;;
33367;SDS011;19724;51.114;13.906;2022-11-27T08:12:41;69.95;;;31.65;;
33367;SDS011;19724;51.114;13.906;2022-11-27T08:15:06;67.38;;;32.17;;
33367;SDS011;19724;51.114;13.906;2022-11-27T08:17:33;63.30;;;29.13;;
33367;SDS011;19724;51.114;13.906;2022-11-27T08:19:58;63.10;;;32.13;;
33367;SDS011;19724;51.114;13.906;2022-11-27T08:22:24;56.30;;;30.58;;
33367;SDS011;19724;51.114;13.906;2022-11-27T08:24:49;66.50;;;29.95;;
33367;SDS011;19724;51.114;13.906;2022-11-27T08:27:15;57.92;;;28.80;;
33367;SDS011;19724;51.114;13.906;2022-11-27T08:29:41;52.90;;;27.35;;
33367;SDS011;19724;51.114;13.906;2022-11-27T08:32:07;51.47;;;26.65;;
33367;SDS011;19724;51.114;13.906;2022-11-27T08:34:33;43.70;;;28.25;;
33367;SDS011;19724;51.114;13.906;2022-11-27T08:36:58;43.33;;;23.20;;
33367;SDS011;19724;51.114;13.906;2022-11-27T08:39:24;39.38;;;21.13;;
33367;SDS011;19724;51.114;13.906;2022-11-27T08:41:50;35.28;;;22.13;;
33367;SDS011;19724;51.114;13.906;2022-11-27T08:44:17;31.42;;;19.27;;
33367;SDS011;19724;51.114;13.906;2022-11-27T08:46:42;27.92;;;19.88;;
33367;SDS011;19724;51.114;13.906;2022-11-27T08:49:08;26.80;;;18.02;;
33367;SDS011;19724;51.114;13.906;2022-11-27T08:51:34;28.20;;;18.17;;
33367;SDS011;19724;51.114;13.906;2022-11-27T08:54:00;23.17;;;17.83;;
33367;SDS011;19724;51.114;13.906;2022-11-27T08:56:26;27.80;;;18.02;;
33367;SDS011;19724;51.114;13.906;2022-11-27T08:58:51;28.58;;;16.88;;
33367;SDS011;19724;51.114;13.906;2022-11-27T09:01:18;23.38;;;15.32;;
33367;SDS011;19724;51.114;13.906;2022-11-27T09:03:48;27.65;;;18.02;;
33367;SDS011;19724;51.114;13.906;2022-11-27T09:06:18;27.08;;;16.92;;
33367;SDS011;19724;51.114;13.906;2022-11-27T09:08:45;24.30;;;14.73;;
33367;SDS011;19724;51.114;13.906;2022-11-27T09:11:12;26.75;;;15.20;;
33367;SDS011;19724;51.114;13.906;2022-11-27T09:13:38;24.10;;;15.65;;
33367;SDS011;19724;51.114;13.906;2022-11-27T09:16:05;17.33;;;12.25;;
33367;SDS011;19724;51.114;13.906;2022-11-27T09:18:33;21.50;;;12.35;;
33367;SDS011;19724;51.114;13.906;2022-11-27T09:21:00;17.83;;;10.55;;
33367;SDS011;19724;51.114;13.906;2022-11-27T09:23:28;16.95;;;9.93;;
33367;SDS011;19724;51.114;13.906;2022-11-27T09:25:57;16.58;;;9.20;;
33367;SDS011;19724;51.114;13.906;2022-11-27T09:28:24;13.68;;;8.18;;
33367;SDS011;19724;51.114;13.906;2022-11-27T09:30:53;14.15;;;8.07;;
33367;SDS011;19724;51.114;13.906;2022-11-27T09:33:20;13.38;;;7.22;;
33367;SDS011;19724;51.114;13.906;2022-11-27T09:35:46;14.10;;;7.50;;
33367;SDS011;19724;51.114;13.906;2022-11-27T09:38:11;13.32;;;6.70;;
33367;SDS011;19724;51.114;13.906;2022-11-27T09:40:41;10.43;;;6.25;;
33367;SDS011;19724;51.114;13.906;2022-11-27T09:43:12;12.55;;;6.50;;
33367;SDS011;19724;51.114;13.906;2022-11-27T09:45:39;17.27;;;7.35;;
33367;SDS011;19724;51.114;13.906;2022-11-27T09:48:10;11.30;;;6.00;;
33367;SDS011;19724;51.114;13.906;2022-11-27T09:50:43;12.52;;;6.47;;
33367;SDS011;19724;51.114;13.906;2022-11-27T09:55:48;11.63;;;6.88;;
33367;SDS011;19724;51.114;13.906;2022-11-27T10:00:54;14.77;;;7.20;;
33367;SDS011;19724;51.114;13.906;2022-11-27T10:03:22;12.38;;;7.90;;
33367;SDS011;19724;51.114;13.906;2022-11-27T10:06:01;15.82;;;8.90;;
33367;SDS011;19724;51.114;13.906;2022-11-27T10:11:47;15.18;;;9.45;;
33367;SDS011;19724;51.114;13.906;2022-11-27T10:17:12;13.00;;;8.57;;
33367;SDS011;19724;51.114;13.906;2022-11-27T10:22:12;11.95;;;6.72;;
33367;SDS011;19724;51.114;13.906;2022-11-27T10:27:24;16.08;;;6.40;;
33367;SDS011;19724;51.114;13.906;2022-11-27T11:11:31;11.10;;;5.90;;
33367;SDS011;19724;51.114;13.906;2022-11-27T11:14:25;10.45;;;5.35;;
33367;SDS011;19724;51.114;13.906;2022-11-27T11:16:51;14.07;;;6.40;;
33367;SDS011;19724;51.114;13.906;2022-11-27T11:22:20;9.15;;;5.80;;
33367;SDS011;19724;51.114;13.906;2022-11-27T11:24:51;10.82;;;5.40;;
33367;SDS011;19724;51.114;13.906;2022-11-27T11:27:23;12.35;;;6.35;;
33367;SDS011;19724;51.114;13.906;2022-11-27T11:29:52;15.90;;;7.35;;
33367;SDS011;19724;51.114;13.906;2022-11-27T11:32:24;10.50;;;6.50;;
33367;SDS011;19724;51.114;13.906;2022-11-27T11:37:32;13.07;;;6.78;;
33367;SDS011;19724;51.114;13.906;2022-11-27T11:42:52;17.15;;;7.07;;
33367;SDS011;19724;51.114;13.906;2022-11-27T11:45:27;11.43;;;6.78;;
33367;SDS011;19724;51.114;13.906;2022-11-27T11:47:55;19.02;;;7.13;;
33367;SDS011;19724;51.114;13.906;2022-11-27T11:50:42;11.50;;;6.30;;
33367;SDS011;19724;51.114;13.906;2022-11-27T11:53:36;11.18;;;5.88;;
33367;SDS011;19724;51.114;13.906;2022-11-27T11:58:59;10.73;;;6.10;;
33367;SDS011;19724;51.114;13.906;2022-11-27T12:01:44;13.25;;;6.63;;
33367;SDS011;19724;51.114;13.906;2022-11-27T12:10:31;11.73;;;6.28;;
33367;SDS011;19724;51.114;13.906;2022-11-27T12:15:41;16.45;;;8.00;;
33367;SDS011;19724;51.114;13.906;2022-11-27T12:18:18;12.68;;;7.25;;
33367;SDS011;19724;51.114;13.906;2022-11-27T12:31:19;14.65;;;7.88;;
33367;SDS011;19724;51.114;13.906;2022-11-27T12:40:00;10.02;;;6.65;;
33367;SDS011;19724;51.114;13.906;2022-11-27T12:42:31;13.38;;;7.50;;
33367;SDS011;19724;51.114;13.906;2022-11-27T12:45:29;10.73;;;6.70;;
33367;SDS011;19724;51.114;13.906;2022-11-27T12:48:16;12.93;;;7.30;;
33367;SDS011;19724;51.114;13.906;2022-11-27T12:50:55;16.15;;;7.55;;
33367;SDS011;19724;51.114;13.906;2022-11-27T12:53:28;14.77;;;8.35;;
33367;SDS011;19724;51.114;13.906;2022-11-27T12:56:24;14.48;;;7.68;;
33367;SDS011;19724;51.114;13.906;2022-11-27T13:01:58;11.88;;;7.50;;
33367;SDS011;19724;51.114;13.906;2022-11-27T13:04:38;14.93;;;8.00;;
33367;SDS011;19724;51.114;13.906;2022-11-27T13:07:12;14.40;;;8.13;;
33367;SDS011;19724;51.114;13.906;2022-11-27T13:12:12;11.93;;;7.90;;
33367;SDS011;19724;51.114;13.906;2022-11-27T13:14:45;11.90;;;7.93;;
33367;SDS011;19724;51.114;13.906;2022-11-27T13:17:18;14.00;;;7.30;;
33367;SDS011;19724;51.114;13.906;2022-11-27T13:19:45;13.85;;;7.93;;
33367;SDS011;19724;51.114;13.906;2022-11-27T13:22:14;12.68;;;7.47;;
33367;SDS011;19724;51.114;13.906;2022-11-27T13:24:45;14.05;;;8.63;;
33367;SDS011;19724;51.114;13.906;2022-11-27T13:27:15;11.45;;;7.25;;
33367;SDS011;19724;51.114;13.906;2022-11-27T13:29:46;12.15;;;7.65;;
33367;SDS011;19724;51.114;13.906;2022-11-27T13:32:22;14.18;;;7.15;;
33367;SDS011;19724;51.114;13.906;2022-11-27T13:34:51;14.23;;;8.15;;
33367;SDS011;19724;51.114;13.906;2022-11-27T13:37:25;12.63;;;7.53;;
33367;SDS011;19724;51.114;13.906;2022-11-27T13:39:59;12.10;;;7.53;;
33367;SDS011;19724;51.114;13.906;2022-11-27T13:42:32;16.15;;;7.80;;
33367;SDS011;19724;51.114;13.906;2022-11-27T13:45:02;12.27;;;7.50;;
33367;SDS011;19724;51.114;13.906;2022-11-27T13:47:34;12.65;;;8.25;;
33367;SDS011;19724;51.114;13.906;2022-11-27T13:52:35;14.60;;;7.95;;
33367;SDS011;19724;51.114;13.906;2022-11-27T13:55:02;10.73;;;6.75;;
33367;SDS011;19724;51.114;13.906;2022-11-27T13:57:31;12.57;;;7.55;;
33367;SDS011;19724;51.114;13.906;2022-11-27T14:00:07;10.48;;;7.40;;
33367;SDS011;19724;51.114;13.906;2022-11-27T14:02:38;16.05;;;7.50;;
33367;SDS011;19724;51.114;13.906;2022-11-27T14:05:12;13.98;;;7.70;;
33367;SDS011;19724;51.114;13.906;2022-11-27T14:07:41;13.07;;;7.43;;
33367;SDS011;19724;51.114;13.906;2022-11-27T14:10:16;14.63;;;7.70;;
33367;SDS011;19724;51.114;13.906;2022-11-27T14:12:54;14.10;;;7.18;;
33367;SDS011;19724;51.114;13.906;2022-11-27T14:15:22;12.95;;;7.68;;
33367;SDS011;19724;51.114;13.906;2022-11-27T14:17:51;12.45;;;7.03;;
33367;SDS011;19724;51.114;13.906;2022-11-27T14:20:28;13.07;;;7.85;;
33367;SDS011;19724;51.114;13.906;2022-11-27T14:22:56;14.65;;;8.02;;
33367;SDS011;19724;51.114;13.906;2022-11-27T14:30:32;13.10;;;7.82;;
33367;SDS011;19724;51.114;13.906;2022-11-27T14:33:01;11.32;;;7.15;;
33367;SDS011;19724;51.114;13.906;2022-11-27T14:35:28;12.27;;;7.90;;
33367;SDS011;19724;51.114;13.906;2022-11-27T14:37:53;17.23;;;9.38;;
33367;SDS011;19724;51.114;13.906;2022-11-27T14:40:31;12.15;;;7.55;;
33367;SDS011;19724;51.114;13.906;2022-11-27T14:43:05;13.88;;;8.13;;
33367;SDS011;19724;51.114;13.906;2022-11-27T14:45:33;14.10;;;8.38;;
33367;SDS011;19724;51.114;13.906;2022-11-27T14:47:59;13.45;;;9.43;;
33367;SDS011;19724;51.114;13.906;2022-11-27T14:50:25;15.48;;;9.27;;
33367;SDS011;19724;51.114;13.906;2022-11-27T14:52:52;15.88;;;9.30;;
33367;SDS011;19724;51.114;13.906;2022-11-27T14:55:20;16.55;;;11.07;;
33367;SDS011;19724;51.114;13.906;2022-11-27T14:57:47;16.25;;;9.35;;
33367;SDS011;19724;51.114;13.906;2022-11-27T15:00:21;15.85;;;10.45;;
33367;SDS011;19724;51.114;13.906;2022-11-27T15:02:51;15.90;;;9.88;;
33367;SDS011;19724;51.114;13.906;2022-11-27T15:05:26;17.20;;;9.90;;
33367;SDS011;19724;51.114;13.906;2022-11-27T15:07:54;19.00;;;10.80;;
33367;SDS011;19724;51.114;13.906;2022-11-27T15:10:23;17.70;;;9.88;;
33367;SDS011;19724;51.114;13.906;2022-11-27T15:12:52;18.70;;;9.73;;
33367;SDS011;19724;51.114;13.906;2022-11-27T15:15:21;18.70;;;9.68;;
33367;SDS011;19724;51.114;13.906;2022-11-27T15:17:55;21.50;;;10.93;;
33367;SDS011;19724;51.114;13.906;2022-11-27T15:20:30;17.02;;;11.73;;
33367;SDS011;19724;51.114;13.906;2022-11-27T15:23:04;19.23;;;10.05;;
33367;SDS011;19724;51.114;13.906;2022-11-27T15:25:44;22.20;;;10.27;;
33367;SDS011;19724;51.114;13.906;2022-11-27T15:30:47;21.05;;;12.18;;
33367;SDS011;19724;51.114;13.906;2022-11-27T15:33:27;17.98;;;11.77;;
33367;SDS011;19724;51.114;13.906;2022-11-27T15:38:39;19.88;;;12.60;;
33367;SDS011;19724;51.114;13.906;2022-11-27T15:41:15;17.67;;;10.85;;
33367;SDS011;19724;51.114;13.906;2022-11-27T15:43:47;19.50;;;12.27;;
33367;SDS011;19724;51.114;13.906;2022-11-27T15:46:13;18.08;;;10.82;;
33367;SDS011;19724;51.114;13.906;2022-11-27T15:48:44;16.45;;;10.68;;
33367;SDS011;19724;51.114;13.906;2022-11-27T15:51:34;20.10;;;11.95;;
33367;SDS011;19724;51.114;13.906;2022-11-27T15:56:56;16.25;;;11.45;;
33367;SDS011;19724;51.114;13.906;2022-11-27T16:08:32;18.95;;;11.90;;
33367;SDS011;19724;51.114;13.906;2022-11-27T16:11:03;22.98;;;14.18;;
33367;SDS011;19724;51.114;13.906;2022-11-27T16:13:30;22.80;;;12.98;;
33367;SDS011;19724;51.114;13.906;2022-11-27T16:16:05;25.08;;;13.07;;
33367;SDS011;19724;51.114;13.906;2022-11-27T16:18:32;20.98;;;13.65;;
33367;SDS011;19724;51.114;13.906;2022-11-27T16:26:10;23.40;;;12.07;;
33367;SDS011;19724;51.114;13.906;2022-11-27T16:28:37;19.08;;;11.57;;
33367;SDS011;19724;51.114;13.906;2022-11-27T16:38:18;19.20;;;12.27;;
33367;SDS011;19724;51.114;13.906;2022-11-27T16:51:34;33.03;;;13.63;;
33367;SDS011;19724;51.114;13.906;2022-11-27T16:54:23;23.00;;;14.18;;
33367;SDS011;19724;51.114;13.906;2022-11-27T16:57:10;23.20;;;13.25;;
33367;SDS011;19724;51.114;13.906;2022-11-27T17:04:41;23.15;;;11.88;;
33367;SDS011;19724;51.114;13.906;2022-11-27T17:07:07;19.17;;;10.98;;
33367;SDS011;19724;51.114;13.906;2022-11-27T17:09:33;19.55;;;11.20;;
33367;SDS011;19724;51.114;13.906;2022-11-27T17:11:58;16.08;;;10.68;;
33367;SDS011;19724;51.114;13.906;2022-11-27T17:14:24;22.10;;;12.75;;
33367;SDS011;19724;51.114;13.906;2022-11-27T17:16:51;17.90;;;13.70;;